Terminal Aerodrome Forecast
Issued by NWS

Home | Current Version | Previous Version | Graphics & Text | Print | Product List | Glossary On
Versions: 1 2 3 4 5 6 7 8 9 10 11 12 13 14 15 16 17 18 19 20 21
696
FTUS43 KABR 050520
TAFATY
TAF
KATY 050520Z 0506/0606 17006KT P6SM OVC120
     FM051400 17007KT P6SM SCT040 OVC060
     FM051600 21010KT 5SM -SN OVC015
     FM052000 32009KT P6SM FEW020 BKN050 OVC100
     FM060300 26006KT P6SM BKN250=

USA.gov is the U.S. government's official web portal to all federal, state and local government web resources and services.